Time;durP1;ratioP1;P1;durP2;ratioP2;P2;SDS_P1;SDS_P2;PMS_P1;PMS_P2;Temp;Humidity;BMP_temperature;BMP_pressure;BME280_temperature;BME280_humidity;BME280_pressure;Samples;Min_cycle;Max_cycle;Signal;HPM_P1;HPM_P2
2022/09/25 00:01:42;;;;;;;;;4.00;2.50;;;;;;;;5104783;27;61810;-80
2022/09/25 00:04:08;;;;;;;;;2.00;1.00;;;;;;;;5103290;27;61971;-80
2022/09/25 00:06:33;;;;;;;;;6.25;1.00;;;;;;;;5104942;27;61788;-80
2022/09/25 00:09:00;;;;;;;;;1.75;1.00;;;;;;;;5102257;27;64658;-80
2022/09/25 00:11:27;;;;;;;;;1.00;1.00;;;;;;;;5104571;27;61797;-81
2022/09/25 00:13:53;;;;;;;;;1.00;1.00;;;;;;;;5102153;27;62124;-80
2022/09/25 00:16:20;;;;;;;;;4.00;2.00;;;;;;;;5103278;27;61840;-80
2022/09/25 00:21:30;;;;;;;;;1.00;1.00;;;;;;;;5104349;27;61836;-80
2022/09/25 00:23:56;;;;;;;;;4.25;3.00;;;;;;;;5103938;27;61807;-80
2022/09/25 00:26:21;;;;;;;;;0.00;0.00;;;;;;;;5104416;27;61760;-80
2022/09/25 00:28:47;;;;;;;;;2.00;0.00;;;;;;;;5101911;27;64738;-81
2022/09/25 00:31:17;;;;;;;;;1.50;1.50;;;;;;;;5102891;27;61918;-81
2022/09/25 00:33:43;;;;;;;;;5.25;1.75;;;;;;;;5104177;27;61931;-80
2022/09/25 00:36:09;;;;;;;;;3.50;2.00;;;;;;;;5102487;27;62124;-80
2022/09/25 00:38:35;;;;;;;;;5.50;2.00;;;;;;;;5103738;27;61891;-80
2022/09/25 00:41:01;;;;;;;;;2.00;1.00;;;;;;;;5102087;27;61797;-80
2022/09/25 00:43:33;;;;;;;;;2.50;1.50;;;;;;;;5102339;27;61979;-80
2022/09/25 00:45:59;;;;;;;;;4.00;3.00;;;;;;;;5104053;27;62404;-81
2022/09/25 00:48:24;;;;;;;;;2.75;2.75;;;;;;;;5103221;27;61951;-79
2022/09/25 00:50:52;;;;;;;;;2.50;2.50;;;;;;;;5102402;27;61840;-81
2022/09/25 00:53:23;;;;;;;;;2.00;2.00;;;;;;;;5103819;27;61967;-80
2022/09/25 00:55:49;;;;;;;;;5.50;1.00;;;;;;;;5103781;27;61694;-79
2022/09/25 00:58:18;;;;;;;;;2.00;2.00;;;;;;;;5102630;27;62268;-79
2022/09/25 01:00:44;;;;;;;;;4.25;1.50;;;;;;;;5102343;27;62156;-80
2022/09/25 01:03:10;;;;;;;;;2.00;2.00;;;;;;;;5103513;27;61696;-80
2022/09/25 01:05:37;;;;;;;;;2.00;1.00;;;;;;;;5103837;27;62089;-81
2022/09/25 01:08:04;;;;;;;;;3.00;2.00;;;;;;;;5102914;27;62073;-79
2022/09/25 01:10:30;;;;;;;;;5.25;2.50;;;;;;;;5102111;27;62076;-80
2022/09/25 01:12:56;;;;;;;;;4.00;3.00;;;;;;;;5101885;27;62396;-79
2022/09/25 01:15:27;;;;;;;;;3.00;3.00;;;;;;;;5102211;27;61837;-80
2022/09/25 01:17:52;;;;;;;;;2.00;2.00;;;;;;;;5103082;27;61867;-80
2022/09/25 01:20:20;;;;;;;;;3.00;2.00;;;;;;;;5103038;27;61996;-80
2022/09/25 01:22:54;;;;;;;;;1.25;1.25;;;;;;;;5103603;27;61737;-81
2022/09/25 01:25:38;;;;;;;;;1.00;1.00;;;;;;;;5101962;27;61854;-80
2022/09/25 01:28:22;;;;;;;;;4.00;1.25;;;;;;;;5102461;27;61751;-80
2022/09/25 01:30:52;;;;;;;;;2.25;2.00;;;;;;;;5103381;27;62375;-80
2022/09/25 01:33:22;;;;;;;;;6.00;2.00;;;;;;;;5102917;27;62090;-79
2022/09/25 01:35:47;;;;;;;;;5.75;2.75;;;;;;;;5102376;27;61800;-81
2022/09/25 01:38:15;;;;;;;;;3.75;2.50;;;;;;;;5102397;27;61890;-80
2022/09/25 01:40:50;;;;;;;;;4.75;2.00;;;;;;;;5101491;27;61722;-80
2022/09/25 01:43:26;;;;;;;;;4.00;3.00;;;;;;;;5101303;27;61762;-80
2022/09/25 01:45:58;;;;;;;;;3.25;3.00;;;;;;;;5102111;27;61821;-80
2022/09/25 01:48:25;;;;;;;;;2.00;2.00;;;;;;;;5103007;27;62900;-80
2022/09/25 01:51:23;;;;;;;;;3.25;3.00;;;;;;;;5101405;27;61716;-80
2022/09/25 01:53:53;;;;;;;;;4.50;2.00;;;;;;;;5062404;28;61895;-80
2022/09/25 01:56:31;;;;;;;;;2.50;2.00;;;;;;;;5079685;28;61956;-80
2022/09/25 01:58:59;;;;;;;;;4.25;2.75;;;;;;;;5079009;28;61983;-79
2022/09/25 02:01:29;;;;;;;;;2.25;1.50;;;;;;;;5079362;28;61862;-79
2022/09/25 02:03:58;;;;;;;;;4.50;3.00;;;;;;;;5096790;27;61861;-80
2022/09/25 02:06:24;;;;;;;;;3.00;3.00;;;;;;;;5079929;28;62092;-80
2022/09/25 02:08:55;;;;;;;;;4.25;3.00;;;;;;;;5078937;28;63027;-79
2022/09/25 02:11:23;;;;;;;;;1.75;1.00;;;;;;;;5079460;28;61810;-80
2022/09/25 02:13:54;;;;;;;;;2.25;2.25;;;;;;;;5079467;28;62263;-80
2022/09/25 02:16:26;;;;;;;;;1.75;1.75;;;;;;;;5079466;28;61921;-79
2022/09/25 02:21:43;;;;;;;;;2.25;2.25;;;;;;;;5079684;28;62231;-80
2022/09/25 02:24:11;;;;;;;;;5.00;4.00;;;;;;;;5078855;28;61811;-79
2022/09/25 02:26:37;;;;;;;;;3.75;3.00;;;;;;;;5079977;28;62029;-80
2022/09/25 02:29:03;;;;;;;;;3.75;3.00;;;;;;;;5086352;27;62011;-80
2022/09/25 02:31:34;;;;;;;;;3.00;3.00;;;;;;;;5102213;27;61749;-80
2022/09/25 02:34:00;;;;;;;;;8.75;3.25;;;;;;;;5101157;27;61860;-79
2022/09/25 02:36:25;;;;;;;;;5.25;5.00;;;;;;;;5101618;27;62137;-80
2022/09/25 02:38:52;;;;;;;;;4.25;4.25;;;;;;;;5105248;27;62166;-79
2022/09/25 02:41:24;;;;;;;;;7.00;3.00;;;;;;;;5104559;27;61786;-80
2022/09/25 02:43:52;;;;;;;;;5.75;4.00;;;;;;;;5106219;27;61916;-80
2022/09/25 02:46:17;;;;;;;;;4.75;3.25;;;;;;;;5104502;27;61903;-79
2022/09/25 02:48:52;;;;;;;;;6.50;3.00;;;;;;;;5105493;27;62897;-79
2022/09/25 02:51:24;;;;;;;;;5.50;3.00;;;;;;;;5105560;27;61893;-80
2022/09/25 02:53:54;;;;;;;;;4.00;3.50;;;;;;;;5105762;27;61829;-80
2022/09/25 02:56:32;;;;;;;;;7.25;4.00;;;;;;;;5105340;27;61717;-79
2022/09/25 02:59:01;;;;;;;;;4.00;4.00;;;;;;;;5104919;27;62088;-81
2022/09/25 03:01:27;;;;;;;;;5.00;3.25;;;;;;;;5105146;27;61848;-80
2022/09/25 03:03:55;;;;;;;;;11.00;4.50;;;;;;;;5105736;27;62105;-80
2022/09/25 03:06:20;;;;;;;;;4.00;4.00;;;;;;;;5103802;27;61777;-80
2022/09/25 03:08:50;;;;;;;;;6.25;5.00;;;;;;;;5104761;27;61851;-80
2022/09/25 03:11:17;;;;;;;;;4.75;4.00;;;;;;;;5104284;27;61733;-80
2022/09/25 03:13:43;;;;;;;;;5.00;4.00;;;;;;;;5105219;27;61941;-80
2022/09/25 03:16:16;;;;;;;;;7.75;5.00;;;;;;;;5104224;27;61954;-81
2022/09/25 03:18:42;;;;;;;;;6.25;4.25;;;;;;;;5104631;27;62096;-80
2022/09/25 03:21:07;;;;;;;;;5.25;4.00;;;;;;;;5105105;27;61658;-80
2022/09/25 03:23:33;;;;;;;;;6.00;4.00;;;;;;;;5104999;27;61848;-80
2022/09/25 03:25:58;;;;;;;;;7.25;7.00;;;;;;;;5105628;27;61725;-80
2022/09/25 03:28:23;;;;;;;;;8.00;5.50;;;;;;;;5104477;27;61784;-80
2022/09/25 03:30:59;;;;;;;;;7.25;4.00;;;;;;;;5105180;27;62166;-80
2022/09/25 03:33:25;;;;;;;;;5.25;5.25;;;;;;;;5104847;27;61915;-80
2022/09/25 03:36:20;;;;;;;;;5.50;5.50;;;;;;;;5103693;27;62068;-81
2022/09/25 03:38:48;;;;;;;;;6.50;5.25;;;;;;;;5093880;27;65278;-80
2022/09/25 03:41:14;;;;;;;;;7.00;5.25;;;;;;;;5104943;27;61785;-79
2022/09/25 03:43:40;;;;;;;;;6.50;6.00;;;;;;;;5103251;27;62033;-81
2022/09/25 03:46:07;;;;;;;;;5.50;4.50;;;;;;;;5103787;27;62034;-80
2022/09/25 03:48:33;;;;;;;;;6.75;6.75;;;;;;;;5102190;27;63733;-79
2022/09/25 03:50:59;;;;;;;;;3.50;3.50;;;;;;;;5104543;27;61700;-81
2022/09/25 03:53:25;;;;;;;;;5.00;5.00;;;;;;;;5103414;27;61647;-80
2022/09/25 03:55:50;;;;;;;;;4.00;4.00;;;;;;;;5104714;27;61617;-80
2022/09/25 03:58:16;;;;;;;;;8.25;4.00;;;;;;;;5102651;27;64960;-80
2022/09/25 04:00:41;;;;;;;;;9.00;5.50;;;;;;;;5102968;27;61771;-80
2022/09/25 04:03:07;;;;;;;;;5.00;4.00;;;;;;;;5103265;27;61910;-80
2022/09/25 04:05:33;;;;;;;;;4.50;3.00;;;;;;;;5104386;27;61621;-81
2022/09/25 04:08:00;;;;;;;;;6.25;4.75;;;;;;;;5102656;27;63706;-81
2022/09/25 04:10:26;;;;;;;;;3.00;3.00;;;;;;;;5104626;27;61915;-81
2022/09/25 04:12:53;;;;;;;;;4.50;3.50;;;;;;;;5102589;27;62014;-80
2022/09/25 04:15:18;;;;;;;;;4.25;4.25;;;;;;;;5103388;27;61814;-80
2022/09/25 04:17:44;;;;;;;;;6.75;4.25;;;;;;;;5103861;27;63538;-80
2022/09/25 04:20:09;;;;;;;;;6.00;4.50;;;;;;;;5102584;27;61648;-79
2022/09/25 04:22:34;;;;;;;;;6.25;5.00;;;;;;;;5104632;27;61890;-81
2022/09/25 04:24:59;;;;;;;;;14.00;7.00;;;;;;;;5104015;27;62094;-80
2022/09/25 04:27:25;;;;;;;;;8.00;5.75;;;;;;;;5102045;27;64056;-80
2022/09/25 04:29:50;;;;;;;;;10.50;7.25;;;;;;;;5102756;27;61816;-80
2022/09/25 04:34:59;;;;;;;;;11.75;10.00;;;;;;;;5104085;27;62130;-79
2022/09/25 04:37:25;;;;;;;;;6.25;5.75;;;;;;;;5103539;27;63190;-80
2022/09/25 04:39:56;;;;;;;;;9.75;8.00;;;;;;;;5103847;27;61978;-80
2022/09/25 04:42:23;;;;;;;;;12.50;9.00;;;;;;;;5104001;27;62074;-79
2022/09/25 04:44:55;;;;;;;;;9.00;8.00;;;;;;;;5102664;27;61867;-79
2022/09/25 04:47:21;;;;;;;;;14.75;10.75;;;;;;;;5103334;27;61834;-79
2022/09/25 04:49:46;;;;;;;;;4.00;4.00;;;;;;;;5103663;27;61890;-80
2022/09/25 04:52:13;;;;;;;;;7.75;7.25;;;;;;;;5104100;27;61868;-79
2022/09/25 04:54:39;;;;;;;;;8.75;7.25;;;;;;;;5103869;27;62088;-80
2022/09/25 04:57:04;;;;;;;;;13.75;9.50;;;;;;;;5101198;27;63535;-80
2022/09/25 04:59:30;;;;;;;;;9.25;8.50;;;;;;;;5103069;27;62063;-81
2022/09/25 05:01:55;;;;;;;;;9.25;7.25;;;;;;;;5102664;27;61847;-79
2022/09/25 05:04:20;;;;;;;;;9.00;8.00;;;;;;;;5103923;27;61683;-79
2022/09/25 05:06:45;;;;;;;;;9.50;6.00;;;;;;;;5102824;27;62381;-79
2022/09/25 05:09:11;;;;;;;;;8.00;7.00;;;;;;;;5103872;27;61874;-79
2022/09/25 05:11:36;;;;;;;;;7.75;7.75;;;;;;;;5103661;27;61725;-79
2022/09/25 05:14:01;;;;;;;;;8.50;6.00;;;;;;;;5101555;27;62137;-79
2022/09/25 05:16:29;;;;;;;;;8.25;7.00;;;;;;;;5102801;27;62146;-79
2022/09/25 05:18:55;;;;;;;;;10.50;5.25;;;;;;;;5103350;27;61843;-80
2022/09/25 05:21:20;;;;;;;;;11.00;7.50;;;;;;;;5103567;27;61741;-80
2022/09/25 05:23:47;;;;;;;;;7.00;5.00;;;;;;;;5103602;27;61789;-80
2022/09/25 05:26:13;;;;;;;;;8.75;5.25;;;;;;;;5102553;27;61908;-80
2022/09/25 05:28:40;;;;;;;;;7.50;5.25;;;;;;;;5103179;27;61789;-81
2022/09/25 05:31:05;;;;;;;;;11.00;7.00;;;;;;;;5103065;27;61686;-81
2022/09/25 05:33:31;;;;;;;;;6.50;6.50;;;;;;;;5103318;27;61714;-81
2022/09/25 05:36:00;;;;;;;;;7.75;5.75;;;;;;;;5100999;27;63714;-80
2022/09/25 05:38:26;;;;;;;;;7.50;6.25;;;;;;;;5102717;27;61854;-80
2022/09/25 05:40:52;;;;;;;;;4.50;4.25;;;;;;;;5102418;27;61890;-80
2022/09/25 05:43:17;;;;;;;;;6.50;4.25;;;;;;;;5100921;27;62150;-80
2022/09/25 05:45:42;;;;;;;;;11.25;5.75;;;;;;;;5100429;27;63504;-80
2022/09/25 05:48:08;;;;;;;;;5.00;5.00;;;;;;;;5099925;27;61859;-79
2022/09/25 05:50:33;;;;;;;;;7.50;5.25;;;;;;;;5100371;27;61911;-79
2022/09/25 05:52:59;;;;;;;;;3.25;3.25;;;;;;;;5100334;27;62117;-79
2022/09/25 05:55:25;;;;;;;;;5.25;4.00;;;;;;;;5099913;27;64014;-79
2022/09/25 05:57:50;;;;;;;;;8.00;4.50;;;;;;;;5101901;27;61877;-81
2022/09/25 06:00:16;;;;;;;;;3.25;3.00;;;;;;;;5101171;27;61737;-80
2022/09/25 06:02:41;;;;;;;;;8.50;4.50;;;;;;;;5103028;27;61835;-80
2022/09/25 06:05:07;;;;;;;;;4.50;4.00;;;;;;;;5102042;27;63109;-81
2022/09/25 06:07:33;;;;;;;;;6.25;4.25;;;;;;;;5100967;27;61715;-80
2022/09/25 06:09:58;;;;;;;;;10.00;4.50;;;;;;;;5102926;27;61963;-81
2022/09/25 06:12:23;;;;;;;;;7.75;4.00;;;;;;;;5103309;27;62270;-80
2022/09/25 06:14:49;;;;;;;;;5.25;4.25;;;;;;;;5105636;27;63223;-80
2022/09/25 06:17:14;;;;;;;;;4.75;2.75;;;;;;;;5106308;27;62054;-80
2022/09/25 06:19:39;;;;;;;;;7.25;4.75;;;;;;;;5106274;27;62021;-80
2022/09/25 06:22:04;;;;;;;;;3.75;3.00;;;;;;;;5106481;27;61758;-80
2022/09/25 06:24:30;;;;;;;;;3.00;3.00;;;;;;;;5103928;27;63662;-80
2022/09/25 06:26:55;;;;;;;;;2.25;2.00;;;;;;;;5104804;27;62011;-79
2022/09/25 06:29:20;;;;;;;;;4.00;3.00;;;;;;;;5103863;27;62176;-79
2022/09/25 06:31:45;;;;;;;;;4.50;2.75;;;;;;;;5103919;27;62000;-80
2022/09/25 06:34:11;;;;;;;;;3.00;3.00;;;;;;;;5105240;27;61812;-81
2022/09/25 06:36:36;;;;;;;;;2.00;2.00;;;;;;;;5104617;27;61918;-80
2022/09/25 06:39:02;;;;;;;;;8.00;3.00;;;;;;;;5104045;27;61777;-80
2022/09/25 06:41:27;;;;;;;;;3.00;3.00;;;;;;;;5104167;27;62064;-80
2022/09/25 06:43:53;;;;;;;;;4.00;4.00;;;;;;;;5105045;27;61970;-80
2022/09/25 06:46:19;;;;;;;;;3.25;3.25;;;;;;;;5105370;27;62017;-81
2022/09/25 06:48:54;;;;;;;;;4.50;3.75;;;;;;;;5105826;27;61596;-81
2022/09/25 06:51:19;;;;;;;;;5.25;4.00;;;;;;;;5105818;27;62038;-80
2022/09/25 06:53:45;;;;;;;;;2.00;2.00;;;;;;;;5103821;27;63938;-81
2022/09/25 06:56:10;;;;;;;;;4.00;3.00;;;;;;;;5105508;27;61989;-80
2022/09/25 06:58:36;;;;;;;;;3.00;3.00;;;;;;;;5105500;27;61863;-80
2022/09/25 07:01:01;;;;;;;;;4.00;2.00;;;;;;;;5105882;27;61842;-81
2022/09/25 07:03:46;;;;;;;;;1.75;1.75;;;;;;;;5103430;27;64154;-81
2022/09/25 07:06:19;;;;;;;;;2.00;2.00;;;;;;;;5105750;27;61888;-80
2022/09/25 07:08:46;;;;;;;;;2.00;2.00;;;;;;;;5105343;27;61885;-80
2022/09/25 07:11:13;;;;;;;;;3.50;3.00;;;;;;;;5104638;27;61703;-81
2022/09/25 07:13:39;;;;;;;;;4.00;3.00;;;;;;;;5102773;27;64648;-82
2022/09/25 07:16:06;;;;;;;;;3.50;3.50;;;;;;;;5105498;27;62451;-81
2022/09/25 07:18:32;;;;;;;;;5.75;2.25;;;;;;;;5105311;27;61792;-81
2022/09/25 07:21:01;;;;;;;;;3.00;3.00;;;;;;;;5104155;27;62049;-81
2022/09/25 07:23:27;;;;;;;;;3.00;1.75;;;;;;;;5103320;27;62257;-81
2022/09/25 07:25:52;;;;;;;;;3.00;3.00;;;;;;;;5103342;27;61791;-81
2022/09/25 07:28:18;;;;;;;;;1.75;1.75;;;;;;;;5102647;27;62344;-80
2022/09/25 07:30:44;;;;;;;;;3.00;1.00;;;;;;;;5102739;27;61743;-83
2022/09/25 07:33:09;;;;;;;;;1.00;1.00;;;;;;;;5102117;27;63002;-81
2022/09/25 07:35:35;;;;;;;;;1.50;1.00;;;;;;;;5104171;27;61948;-81
2022/09/25 07:38:01;;;;;;;;;1.25;1.25;;;;;;;;5103508;27;61872;-81
2022/09/25 07:40:27;;;;;;;;;1.00;1.00;;;;;;;;5101680;27;61827;-82
2022/09/25 07:42:57;;;;;;;;;1.00;1.00;;;;;;;;5102823;27;63735;-82
2022/09/25 07:45:22;;;;;;;;;0.75;0.75;;;;;;;;5104216;27;61885;-81
2022/09/25 07:47:47;;;;;;;;;1.00;1.00;;;;;;;;5102433;27;61998;-81
2022/09/25 07:50:13;;;;;;;;;3.00;1.50;;;;;;;;5102179;27;62004;-82
2022/09/25 07:52:38;;;;;;;;;2.25;0.75;;;;;;;;5101425;27;63925;-81
2022/09/25 07:55:05;;;;;;;;;1.50;1.00;;;;;;;;5103179;27;61858;-79
2022/09/25 07:57:30;;;;;;;;;0.75;0.75;;;;;;;;5101338;27;62034;-80
2022/09/25 07:59:55;;;;;;;;;1.00;1.00;;;;;;;;5103869;27;61771;-78
2022/09/25 08:02:21;;;;;;;;;2.75;1.00;;;;;;;;5103851;27;62137;-78
2022/09/25 08:04:46;;;;;;;;;2.00;2.00;;;;;;;;5103715;27;61843;-79
2022/09/25 08:07:11;;;;;;;;;0.75;0.75;;;;;;;;5104782;27;61808;-78
2022/09/25 08:09:36;;;;;;;;;0.50;0.50;;;;;;;;5104773;27;62150;-79
2022/09/25 08:12:02;;;;;;;;;2.00;0.00;;;;;;;;5103881;27;62061;-79
2022/09/25 08:14:27;;;;;;;;;2.00;2.00;;;;;;;;5102502;27;61809;-78
2022/09/25 08:16:54;;;;;;;;;1.00;1.00;;;;;;;;5102827;27;61776;-79
2022/09/25 08:19:22;;;;;;;;;2.00;1.25;;;;;;;;5104480;27;62048;-80
2022/09/25 08:21:47;;;;;;;;;1.00;1.00;;;;;;;;5103123;27;61794;-81
2022/09/25 08:24:12;;;;;;;;;0.00;0.00;;;;;;;;5103042;27;61965;-81
2022/09/25 08:26:38;;;;;;;;;2.00;1.00;;;;;;;;5103327;27;62503;-85
2022/09/25 08:29:03;;;;;;;;;1.00;1.00;;;;;;;;5102515;27;61861;-81
2022/09/25 08:31:28;;;;;;;;;0.75;0.75;;;;;;;;5101982;27;63682;-81
2022/09/25 08:33:54;;;;;;;;;0.00;0.00;;;;;;;;5103165;27;61946;-81
2022/09/25 08:36:20;;;;;;;;;1.00;1.00;;;;;;;;5102829;27;62009;-80
2022/09/25 08:38:45;;;;;;;;;0.00;0.00;;;;;;;;5103751;27;61796;-80
2022/09/25 08:41:31;;;;;;;;;1.00;0.00;;;;;;;;5102953;27;62659;-79
2022/09/25 08:44:15;;;;;;;;;1.00;0.00;;;;;;;;5102900;27;61847;-81
2022/09/25 08:49:49;;;;;;;;;0.50;0.00;;;;;;;;5104319;27;62021;-79
2022/09/25 08:52:16;;;;;;;;;0.00;0.00;;;;;;;;5103624;27;62868;-79
2022/09/25 08:54:42;;;;;;;;;0.75;0.75;;;;;;;;5101747;27;61799;-80
2022/09/25 08:57:07;;;;;;;;;2.50;1.50;;;;;;;;5102686;27;61832;-80
2022/09/25 08:59:32;;;;;;;;;3.50;1.00;;;;;;;;5102584;27;61812;-80
2022/09/25 09:01:59;;;;;;;;;0.00;0.00;;;;;;;;5101581;27;64991;-81
2022/09/25 09:04:34;;;;;;;;;2.50;0.25;;;;;;;;5103939;27;61842;-80
2022/09/25 09:07:07;;;;;;;;;2.50;1.00;;;;;;;;5103504;27;61853;-79
2022/09/25 09:09:38;;;;;;;;;2.25;0.00;;;;;;;;5102589;27;61754;-80
2022/09/25 09:12:26;;;;;;;;;2.25;0.00;;;;;;;;5101513;27;63698;-81
2022/09/25 09:14:55;;;;;;;;;0.75;0.75;;;;;;;;5099890;27;61727;-79
2022/09/25 09:17:25;;;;;;;;;0.00;0.00;;;;;;;;5102221;27;61783;-80
2022/09/25 09:19:52;;;;;;;;;1.00;0.00;;;;;;;;5102192;27;62116;-80
2022/09/25 09:22:24;;;;;;;;;0.25;0.25;;;;;;;;5103122;27;62122;-80
2022/09/25 09:24:54;;;;;;;;;0.00;0.00;;;;;;;;5101604;27;61933;-80
2022/09/25 09:27:26;;;;;;;;;1.00;1.00;;;;;;;;5101991;27;61827;-79
2022/09/25 09:30:07;;;;;;;;;0.00;0.00;;;;;;;;5102403;27;61802;-81
2022/09/25 09:32:36;;;;;;;;;1.00;1.00;;;;;;;;5102967;27;62948;-81
2022/09/25 09:35:01;;;;;;;;;0.25;0.00;;;;;;;;5101901;27;61750;-81
2022/09/25 09:37:37;;;;;;;;;0.00;0.00;;;;;;;;5103335;27;61958;-79
2022/09/25 09:40:17;;;;;;;;;0.00;0.00;;;;;;;;5102108;27;61783;-81
2022/09/25 09:42:58;;;;;;;;;0.00;0.00;;;;;;;;5102641;27;63283;-80
2022/09/25 09:45:24;;;;;;;;;0.00;0.00;;;;;;;;5103124;27;61857;-79
2022/09/25 09:48:08;;;;;;;;;2.75;0.00;;;;;;;;5102333;27;61802;-80
2022/09/25 09:50:35;;;;;;;;;2.75;0.00;;;;;;;;5101772;27;61938;-79
2022/09/25 09:53:04;;;;;;;;;0.00;0.00;;;;;;;;5101992;27;61786;-81
2022/09/25 09:55:36;;;;;;;;;0.00;0.00;;;;;;;;5101424;27;61879;-80
2022/09/25 09:58:07;;;;;;;;;0.00;0.00;;;;;;;;5102661;27;61880;-80
2022/09/25 10:00:33;;;;;;;;;0.00;0.00;;;;;;;;5103633;27;61677;-80
2022/09/25 10:03:02;;;;;;;;;1.50;0.00;;;;;;;;5102319;27;61770;-80
2022/09/25 10:05:32;;;;;;;;;0.00;0.00;;;;;;;;5101340;27;61776;-80
2022/09/25 10:07:58;;;;;;;;;1.50;0.00;;;;;;;;5102585;27;62227;-81
2022/09/25 10:10:34;;;;;;;;;0.00;0.00;;;;;;;;5101854;27;61868;-80
2022/09/25 10:13:05;;;;;;;;;1.25;0.00;;;;;;;;5102085;27;62226;-80
2022/09/25 10:15:41;;;;;;;;;1.00;0.00;;;;;;;;5102717;27;61816;-80
2022/09/25 10:18:07;;;;;;;;;0.00;0.00;;;;;;;;5101130;27;61962;-80
2022/09/25 10:20:38;;;;;;;;;0.00;0.00;;;;;;;;5103041;27;61702;-80
2022/09/25 10:23:05;;;;;;;;;0.00;0.00;;;;;;;;5101789;27;61841;-79
2022/09/25 10:25:35;;;;;;;;;0.00;0.00;;;;;;;;5102429;27;61951;-80
2022/09/25 10:28:19;;;;;;;;;0.75;0.00;;;;;;;;5100986;27;62076;-79
2022/09/25 10:30:45;;;;;;;;;0.00;0.00;;;;;;;;5101430;27;61926;-80
2022/09/25 10:33:15;;;;;;;;;0.00;0.00;;;;;;;;5101678;27;61745;-80
2022/09/25 10:35:42;;;;;;;;;1.00;0.00;;;;;;;;5102214;27;61793;-80
2022/09/25 10:38:26;;;;;;;;;0.00;0.00;;;;;;;;5100878;27;61836;-80
2022/09/25 10:41:01;;;;;;;;;1.00;0.00;;;;;;;;5102600;27;61716;-81
2022/09/25 10:43:27;;;;;;;;;1.00;0.00;;;;;;;;5101277;27;62869;-80
2022/09/25 10:50:09;;;;;;;;;0.00;0.00;;;;;;;;5102527;27;62099;-80
2022/09/25 10:52:04;;;;;;;;;0.00;0.00;;;;;;;;5102422;27;61784;-80
2022/09/25 10:54:29;;;;;;;;;1.00;0.00;;;;;;;;5101510;27;62633;-81
2022/09/25 10:56:55;;;;;;;;;0.00;0.00;;;;;;;;5102049;27;61979;-81
2022/09/25 10:59:21;;;;;;;;;0.00;0.00;;;;;;;;5104180;27;61955;-80
2022/09/25 11:01:49;;;;;;;;;0.00;0.00;;;;;;;;5104545;27;62168;-80
2022/09/25 11:04:29;;;;;;;;;0.00;0.00;;;;;;;;5103407;27;64051;-79
2022/09/25 11:06:57;;;;;;;;;0.00;0.00;;;;;;;;5105462;27;62054;-80
2022/09/25 11:09:23;;;;;;;;;0.00;0.00;;;;;;;;5104243;27;61729;-80
2022/09/25 11:11:51;;;;;;;;;0.00;0.00;;;;;;;;5104732;27;61659;-81
2022/09/25 11:14:21;;;;;;;;;0.00;0.00;;;;;;;;5102769;27;63685;-80
2022/09/25 11:16:46;;;;;;;;;0.00;0.00;;;;;;;;5104093;27;62008;-81
2022/09/25 11:19:24;;;;;;;;;0.00;0.00;;;;;;;;5103958;27;61943;-80
2022/09/25 11:21:58;;;;;;;;;1.00;0.00;;;;;;;;5105750;27;61784;-80
2022/09/25 11:24:43;;;;;;;;;0.00;0.00;;;;;;;;5103381;27;64709;-81
2022/09/25 11:27:11;;;;;;;;;0.00;0.00;;;;;;;;5105270;27;62082;-81
2022/09/25 11:29:55;;;;;;;;;0.00;0.00;;;;;;;;5103770;27;61888;-80
2022/09/25 11:32:23;;;;;;;;;0.00;0.00;;;;;;;;5103616;27;61873;-82
2022/09/25 11:35:07;;;;;;;;;0.25;0.00;;;;;;;;5103056;27;63753;-81
2022/09/25 11:37:45;;;;;;;;;0.75;0.75;;;;;;;;5104038;27;61903;-81
2022/09/25 11:43:05;;;;;;;;;0.00;0.00;;;;;;;;5105182;27;61891;-81
2022/09/25 11:45:38;;;;;;;;;0.00;0.00;;;;;;;;5104336;27;61923;-81
2022/09/25 11:48:20;;;;;;;;;1.50;0.50;;;;;;;;5104795;27;61679;-80
2022/09/25 11:50:56;;;;;;;;;0.00;0.00;;;;;;;;5105080;27;61747;-80
2022/09/25 11:53:28;;;;;;;;;0.50;0.50;;;;;;;;5104983;27;61677;-80
2022/09/25 11:56:09;;;;;;;;;0.00;0.00;;;;;;;;5104341;27;62059;-82
2022/09/25 11:58:37;;;;;;;;;0.00;0.00;;;;;;;;5103321;27;62249;-82
2022/09/25 12:01:05;;;;;;;;;0.00;0.00;;;;;;;;5105145;27;61733;-82
2022/09/25 12:03:37;;;;;;;;;0.00;0.00;;;;;;;;5104426;27;61654;-82
2022/09/25 12:06:10;;;;;;;;;2.00;0.00;;;;;;;;5104092;27;62071;-82
2022/09/25 12:08:53;;;;;;;;;0.00;0.00;;;;;;;;5104719;27;61758;-82
2022/09/25 12:11:18;;;;;;;;;0.00;0.00;;;;;;;;5137691;27;61902;-81
2022/09/25 12:14:02;;;;;;;;;1.00;0.00;;;;;;;;5103221;27;61873;-80
2022/09/25 12:16:38;;;;;;;;;0.00;0.00;;;;;;;;5103885;27;63198;-80
2022/09/25 12:19:08;;;;;;;;;0.00;0.00;;;;;;;;5104566;27;61665;-80
2022/09/25 12:21:33;;;;;;;;;0.00;0.00;;;;;;;;5102968;27;62102;-81
2022/09/25 12:24:13;;;;;;;;;0.00;0.00;;;;;;;;5103141;27;61933;-80
2022/09/25 12:26:51;;;;;;;;;0.00;0.00;;;;;;;;5103569;27;61760;-81
2022/09/25 12:29:30;;;;;;;;;0.00;0.00;;;;;;;;5102945;27;62226;-81
2022/09/25 12:31:56;;;;;;;;;1.00;0.00;;;;;;;;5102592;27;61855;-80
2022/09/25 12:34:41;;;;;;;;;0.00;0.00;;;;;;;;5102813;27;61788;-81
2022/09/25 12:37:24;;;;;;;;;0.00;0.00;;;;;;;;5103767;27;62943;-80
2022/09/25 12:39:57;;;;;;;;;0.00;0.00;;;;;;;;5104226;27;61936;-80
2022/09/25 12:42:43;;;;;;;;;0.00;0.00;;;;;;;;5104148;27;61744;-80
2022/09/25 12:45:19;;;;;;;;;0.00;0.00;;;;;;;;5104412;27;61973;-80
2022/09/25 12:47:51;;;;;;;;;0.00;0.00;;;;;;;;5103168;27;61720;-81
2022/09/25 12:50:17;;;;;;;;;1.00;1.00;;;;;;;;5102678;27;61891;-81
2022/09/25 12:52:56;;;;;;;;;0.00;0.00;;;;;;;;5103896;27;61741;-81
2022/09/25 12:55:25;;;;;;;;;0.00;0.00;;;;;;;;5103837;27;61683;-81
2022/09/25 12:57:59;;;;;;;;;0.00;0.00;;;;;;;;5102860;27;62804;-80
2022/09/25 13:00:27;;;;;;;;;0.00;0.00;;;;;;;;5103672;27;61751;-81
2022/09/25 13:02:57;;;;;;;;;0.00;0.00;;;;;;;;5103729;27;61923;-81
2022/09/25 13:05:35;;;;;;;;;0.00;0.00;;;;;;;;5102587;27;61794;-80
2022/09/25 13:08:09;;;;;;;;;0.00;0.00;;;;;;;;5103044;27;63404;-80
2022/09/25 13:10:38;;;;;;;;;3.00;1.00;;;;;;;;5102288;27;61879;-81
2022/09/25 13:13:08;;;;;;;;;1.67;1.67;;;;;;;;5102089;27;61976;-80
2022/09/25 13:15:36;;;;;;;;;0.67;0.67;;;;;;;;5103528;27;61797;-81
2022/09/25 13:18:02;;;;;;;;;0.00;0.00;;;;;;;;5103198;27;61927;-81
2022/09/25 13:20:36;;;;;;;;;0.00;0.00;;;;;;;;5103260;27;61855;-81
2022/09/25 13:23:04;;;;;;;;;0.00;0.00;;;;;;;;5102855;27;61840;-81
2022/09/25 13:25:40;;;;;;;;;0.00;0.00;;;;;;;;5103511;27;62671;-81
2022/09/25 13:28:06;;;;;;;;;0.00;0.00;;;;;;;;5101084;27;65086;-80
2022/09/25 13:30:32;;;;;;;;;0.33;0.00;;;;;;;;5102089;27;61939;-80
2022/09/25 13:33:02;;;;;;;;;0.00;0.00;;;;;;;;5102902;27;61740;-80
2022/09/25 13:35:28;;;;;;;;;0.00;0.00;;;;;;;;5103532;27;61858;-80
2022/09/25 13:37:55;;;;;;;;;0.00;0.00;;;;;;;;5102751;27;62175;-81
2022/09/25 13:43:19;;;;;;;;;0.00;0.00;;;;;;;;5102832;27;61717;-79
2022/09/25 13:45:46;;;;;;;;;0.33;0.00;;;;;;;;5101445;27;61930;-80
2022/09/25 13:48:14;;;;;;;;;0.00;0.00;;;;;;;;5102679;27;61824;-80
2022/09/25 13:50:44;;;;;;;;;1.00;0.00;;;;;;;;5102773;27;61901;-80
2022/09/25 13:53:16;;;;;;;;;0.00;0.00;;;;;;;;5101597;27;61860;-80
2022/09/25 13:55:47;;;;;;;;;0.00;0.00;;;;;;;;5101292;27;61813;-80
2022/09/25 13:58:16;;;;;;;;;1.00;0.00;;;;;;;;5100342;27;63861;-78
2022/09/25 14:00:45;;;;;;;;;0.00;0.00;;;;;;;;5101388;27;61903;-80
2022/09/25 14:03:36;;;;;;;;;0.33;0.00;;;;;;;;5103190;27;61975;-81
2022/09/25 14:06:03;;;;;;;;;0.00;0.00;;;;;;;;5101300;27;61742;-80
2022/09/25 14:08:30;;;;;;;;;0.00;0.00;;;;;;;;5101114;27;63720;-80
2022/09/25 14:10:57;;;;;;;;;0.00;0.00;;;;;;;;5102581;27;61705;-80
2022/09/25 14:13:24;;;;;;;;;0.00;0.00;;;;;;;;5101020;27;61847;-80
2022/09/25 14:15:50;;;;;;;;;1.00;0.00;;;;;;;;5100519;27;61757;-83
2022/09/25 14:18:21;;;;;;;;;0.00;0.00;;;;;;;;5101253;27;62027;-80
2022/09/25 14:20:49;;;;;;;;;1.00;1.00;;;;;;;;5102452;27;61816;-81
2022/09/25 14:23:21;;;;;;;;;0.00;0.00;;;;;;;;5102679;27;61788;-82
2022/09/25 14:25:55;;;;;;;;;0.00;0.00;;;;;;;;5101320;27;61788;-82
2022/09/25 14:28:22;;;;;;;;;0.00;0.00;;;;;;;;5100206;27;63900;-82
2022/09/25 14:31:06;;;;;;;;;0.00;0.00;;;;;;;;5102510;27;61857;-82
2022/09/25 14:33:59;;;;;;;;;0.00;0.00;;;;;;;;5102650;27;62151;-81
2022/09/25 14:36:43;;;;;;;;;0.00;0.00;;;;;;;;5104860;27;61844;-80
2022/09/25 14:39:24;;;;;;;;;2.33;0.00;;;;;;;;5102978;27;62055;-81
2022/09/25 14:41:53;;;;;;;;;1.00;0.00;;;;;;;;5103024;27;61913;-81
2022/09/25 14:44:18;;;;;;;;;0.00;0.00;;;;;;;;5100480;27;62232;-81
2022/09/25 14:46:47;;;;;;;;;0.00;0.00;;;;;;;;5104561;27;61805;-81
2022/09/25 14:49:15;;;;;;;;;0.00;0.00;;;;;;;;5101505;27;61976;-83
2022/09/25 14:51:43;;;;;;;;;0.00;0.00;;;;;;;;5104618;27;62443;-82
2022/09/25 14:54:14;;;;;;;;;0.00;0.00;;;;;;;;5102050;27;61776;-86
2022/09/25 14:56:40;;;;;;;;;0.00;0.00;;;;;;;;5103363;27;62749;-82
2022/09/25 14:59:09;;;;;;;;;0.00;0.00;;;;;;;;5102790;27;62863;-83
2022/09/25 15:01:35;;;;;;;;;0.00;0.00;;;;;;;;5103045;27;61887;-83
2022/09/25 15:04:00;;;;;;;;;0.00;0.00;;;;;;;;5101950;27;62051;-83
2022/09/25 15:06:32;;;;;;;;;0.00;0.00;;;;;;;;5103766;27;61845;-83
2022/09/25 15:09:00;;;;;;;;;0.00;0.00;;;;;;;;5101888;27;61800;-83
2022/09/25 15:11:39;;;;;;;;;0.00;0.00;;;;;;;;5103408;27;62209;-82
2022/09/25 15:14:15;;;;;;;;;0.00;0.00;;;;;;;;5102304;27;61904;-82
2022/09/25 15:19:38;;;;;;;;;1.00;0.00;;;;;;;;5102572;27;61889;-82